createdAt,value
2023-03-22T00:03:55.655Z,758.00
2023-03-22T00:07:55.616Z,754.00
2023-03-22T00:11:55.678Z,752.00
2023-03-22T00:15:55.860Z,755.00
2023-03-22T00:19:55.798Z,753.00
2023-03-22T00:23:55.852Z,756.00
2023-03-22T00:27:55.911Z,758.00
2023-03-22T00:31:56.161Z,757.00
2023-03-22T00:35:56.057Z,758.00
2023-03-22T00:39:56.616Z,751.00
2023-03-22T00:43:56.256Z,751.00
2023-03-22T00:47:56.297Z,755.00
2023-03-22T00:51:56.324Z,756.00
2023-03-22T00:55:56.358Z,756.00
2023-03-22T00:59:56.636Z,758.00
2023-03-22T01:03:56.552Z,754.00
2023-03-22T01:07:56.485Z,753.00
2023-03-22T01:11:56.528Z,755.00
2023-03-22T01:15:56.572Z,756.00
2023-03-22T01:19:56.691Z,753.00
2023-03-22T01:23:56.727Z,756.00
2023-03-22T01:27:56.766Z,755.00
2023-03-22T01:31:56.825Z,755.00
2023-03-22T01:35:56.906Z,755.00
2023-03-22T01:39:56.905Z,758.00
2023-03-22T01:43:56.950Z,761.00
2023-03-22T01:47:57.030Z,760.00
2023-03-22T01:51:57.341Z,758.00
2023-03-22T01:55:57.101Z,757.00
2023-03-22T01:59:57.252Z,757.00
2023-03-22T02:03:57.374Z,760.00
2023-03-22T02:07:57.352Z,766.00
2023-03-22T02:11:57.404Z,760.00
2023-03-22T02:15:57.489Z,758.00
2023-03-22T02:19:57.476Z,757.00
2023-03-22T02:23:57.540Z,755.00
2023-03-22T02:27:57.587Z,756.00
2023-03-22T02:31:57.643Z,756.00
2023-03-22T02:35:57.717Z,757.00
2023-03-22T02:39:57.742Z,754.00
2023-03-22T02:43:58.004Z,754.00
2023-03-22T02:47:58.296Z,756.00
2023-03-22T02:51:58.546Z,753.00
2023-03-22T02:55:58.827Z,756.00
2023-03-22T02:59:59.197Z,753.00
2023-03-22T03:03:59.305Z,754.00
2023-03-22T03:07:59.541Z,754.00
2023-03-22T03:11:59.751Z,751.00
2023-03-22T03:15:59.977Z,751.00
2023-03-22T03:20:00.184Z,755.00
2023-03-22T03:24:00.391Z,755.00
2023-03-22T03:28:00.606Z,754.00
2023-03-22T03:32:00.923Z,752.00
2023-03-22T03:36:01.010Z,755.00
2023-03-22T03:40:01.208Z,758.00
2023-03-22T03:44:01.426Z,759.00
2023-03-22T03:48:01.753Z,758.00
2023-03-22T03:52:01.993Z,755.00
2023-03-22T03:56:02.089Z,755.00
2023-03-22T04:00:02.307Z,753.00
2023-03-22T04:04:02.572Z,758.00
2023-03-22T04:08:02.722Z,756.00
2023-03-22T04:12:02.926Z,762.00
2023-03-22T04:16:03.147Z,760.00
2023-03-22T04:20:05.781Z,762.00
2023-03-22T04:24:03.412Z,767.00
2023-03-22T04:28:03.462Z,762.00
2023-03-22T04:32:03.532Z,759.00
2023-03-22T04:36:04.645Z,756.00
2023-03-22T04:40:03.626Z,757.00
2023-03-22T04:44:03.701Z,756.00
2023-03-22T04:48:03.814Z,753.00
2023-03-22T04:52:03.796Z,752.00
2023-03-22T04:56:04.216Z,748.00
2023-03-22T05:00:03.879Z,751.00
2023-03-22T05:04:03.949Z,754.00
2023-03-22T05:08:04.088Z,755.00
2023-03-22T05:12:04.089Z,758.00
2023-03-22T05:16:04.346Z,760.00
2023-03-22T05:20:04.502Z,756.00
2023-03-22T05:24:04.709Z,760.00
2023-03-22T05:28:04.919Z,757.00
2023-03-22T05:32:05.140Z,754.00
2023-03-22T05:36:05.351Z,756.00
2023-03-22T05:40:05.553Z,763.00
2023-03-22T05:44:05.773Z,759.00
2023-03-22T05:48:06.100Z,762.00
2023-03-22T05:52:06.185Z,761.00
2023-03-22T05:56:07.140Z,763.00
2023-03-22T06:00:06.581Z,762.00
2023-03-22T06:04:06.806Z,752.00
2023-03-22T06:08:06.989Z,756.00
2023-03-22T06:12:07.191Z,753.00
2023-03-22T06:16:07.412Z,756.00
2023-03-22T06:20:07.589Z,770.00
2023-03-22T06:24:07.787Z,759.00
2023-03-22T06:28:08.869Z,761.00
2023-03-22T06:32:08.214Z,755.00
2023-03-22T06:36:08.414Z,762.00
2023-03-22T06:40:08.616Z,763.00
2023-03-22T06:44:08.803Z,762.00
2023-03-22T06:48:09.064Z,760.00
2023-03-22T06:52:09.250Z,763.00
2023-03-22T06:56:09.418Z,755.00
2023-03-22T07:00:09.613Z,757.00
2023-03-22T07:04:09.857Z,755.00
2023-03-22T07:08:10.008Z,756.00
2023-03-22T07:12:10.208Z,762.00
2023-03-22T07:16:10.503Z,770.00
2023-03-22T07:20:10.572Z,765.00
2023-03-22T07:24:10.760Z,764.00
2023-03-22T07:28:10.927Z,764.00
2023-03-22T07:32:11.179Z,768.00
2023-03-22T07:36:12.440Z,772.00
2023-03-22T07:40:11.440Z,766.00
2023-03-22T07:44:17.932Z,764.00
2023-03-22T07:48:12.703Z,763.00
2023-03-22T07:52:12.249Z,770.00
2023-03-22T07:56:11.712Z,768.00
2023-03-22T08:00:11.733Z,768.00
2023-03-22T08:04:11.833Z,774.00
2023-03-22T08:08:11.946Z,764.00
2023-03-22T08:12:12.081Z,766.00
2023-03-22T08:16:12.263Z,769.00
2023-03-22T08:20:13.198Z,763.00
2023-03-22T08:24:13.189Z,766.00
2023-03-22T08:28:12.624Z,770.00
2023-03-22T08:32:12.800Z,769.00
2023-03-22T08:36:12.889Z,770.00
2023-03-22T08:40:13.055Z,773.00
2023-03-22T08:44:13.084Z,774.00
2023-03-22T08:48:13.294Z,769.00
2023-03-22T08:52:13.342Z,769.00
2023-03-22T08:56:13.484Z,775.00
2023-03-22T09:00:13.629Z,773.00
2023-03-22T09:04:13.772Z,774.00
2023-03-22T09:08:19.155Z,772.00
2023-03-22T09:12:14.935Z,777.00
2023-03-22T09:16:13.919Z,773.00
2023-03-22T09:20:13.865Z,773.00
2023-03-22T09:24:13.889Z,776.00
2023-03-22T09:28:13.908Z,767.00
2023-03-22T09:32:14.040Z,769.00
2023-03-22T09:36:14.121Z,770.00
2023-03-22T09:40:14.196Z,771.00
2023-03-22T09:44:14.298Z,776.00
2023-03-22T09:48:14.531Z,773.00
2023-03-22T09:52:14.501Z,770.00
2023-03-22T09:56:14.526Z,767.00
2023-03-22T10:00:14.698Z,767.00
2023-03-22T10:04:14.744Z,773.00
2023-03-22T10:08:14.729Z,776.00
2023-03-22T10:12:14.781Z,779.00
2023-03-22T10:16:14.922Z,774.00
2023-03-22T10:20:14.872Z,771.00
2023-03-22T10:24:15.099Z,762.00
2023-03-22T10:28:15.198Z,759.00
2023-03-22T10:32:15.816Z,766.00
2023-03-22T10:36:15.451Z,769.00
2023-03-22T10:40:15.432Z,770.00
2023-03-22T10:44:15.807Z,773.00
2023-03-22T10:48:18.032Z,773.00
2023-03-22T10:52:15.446Z,772.00
2023-03-22T10:56:15.430Z,775.00
2023-03-22T11:00:15.555Z,777.00
2023-03-22T11:04:15.556Z,779.00
2023-03-22T11:08:15.827Z,774.00
2023-03-22T11:12:15.428Z,771.00
2023-03-22T11:16:15.468Z,771.00
2023-03-22T11:20:15.435Z,770.00
2023-03-22T11:24:15.543Z,772.00
2023-03-22T11:28:15.665Z,770.00
2023-03-22T11:32:15.848Z,770.00
2023-03-22T11:36:16.846Z,768.00
2023-03-22T11:40:16.178Z,771.00
2023-03-22T11:44:16.130Z,775.00
2023-03-22T11:48:16.311Z,774.00
2023-03-22T11:52:16.230Z,779.00
2023-03-22T11:56:16.258Z,779.00
2023-03-22T12:00:16.790Z,775.00
2023-03-22T12:04:16.278Z,771.00
2023-03-22T12:08:17.262Z,768.00
2023-03-22T12:12:16.504Z,769.00
2023-03-22T12:16:16.490Z,769.00
2023-03-22T12:20:16.437Z,772.00
2023-03-22T12:24:16.393Z,768.00
2023-03-22T12:28:16.357Z,772.00
2023-03-22T12:32:16.276Z,771.00
2023-03-22T12:36:16.285Z,769.00
2023-03-22T12:40:16.135Z,765.00
2023-03-22T12:44:16.043Z,771.00
2023-03-22T12:48:16.095Z,775.00
2023-03-22T12:52:15.899Z,771.00
2023-03-22T12:56:15.831Z,772.00
2023-03-22T13:00:15.753Z,772.00
2023-03-22T13:04:15.717Z,777.00
2023-03-22T13:08:15.581Z,781.00
2023-03-22T13:12:15.511Z,778.00
2023-03-22T13:16:15.434Z,774.00
2023-03-22T13:20:15.302Z,773.00
2023-03-22T13:24:15.476Z,770.00
2023-03-22T13:28:15.401Z,768.00
2023-03-22T13:32:15.296Z,770.00
2023-03-22T13:36:15.205Z,766.00
2023-03-22T13:40:15.014Z,769.00
2023-03-22T13:44:14.884Z,763.00
2023-03-22T13:48:14.909Z,768.00
2023-03-22T13:52:14.635Z,766.00
2023-03-22T13:56:14.498Z,769.00
2023-03-22T14:00:15.319Z,766.00
2023-03-22T14:04:14.240Z,770.00
2023-03-22T14:08:14.117Z,773.00
2023-03-22T14:12:14.210Z,771.00
2023-03-22T14:16:14.214Z,769.00
2023-03-22T14:20:14.248Z,769.00
2023-03-22T14:49:14.794Z,761.00
2023-03-22T14:53:14.791Z,757.00
2023-03-22T14:57:14.449Z,755.00
2023-03-22T15:01:14.449Z,759.00
2023-03-22T15:05:14.358Z,764.00
2023-03-22T15:09:14.287Z,756.00
2023-03-22T15:13:14.225Z,756.00
2023-03-22T15:17:14.297Z,754.00
2023-03-22T15:21:14.162Z,755.00
2023-03-22T15:25:14.083Z,754.00
2023-03-22T15:29:13.965Z,760.00
2023-03-22T15:33:13.960Z,757.00
2023-03-22T15:37:13.790Z,758.00
2023-03-22T15:41:13.748Z,756.00
2023-03-22T15:45:13.885Z,754.00
2023-03-22T15:49:14.020Z,754.00
2023-03-22T15:53:14.225Z,756.00
2023-03-22T15:57:14.169Z,755.00
2023-03-22T16:01:14.222Z,753.00
2023-03-22T16:05:14.110Z,756.00
2023-03-22T16:09:14.077Z,754.00
2023-03-22T16:13:14.061Z,755.00
2023-03-22T16:17:14.060Z,749.00
2023-03-22T16:21:14.010Z,752.00
2023-03-22T16:25:14.328Z,750.00
2023-03-22T16:29:13.967Z,747.00
2023-03-22T16:33:14.030Z,750.00
2023-03-22T16:37:13.935Z,749.00
2023-03-22T16:41:13.936Z,751.00
2023-03-22T16:45:13.920Z,752.00
2023-03-22T16:49:13.913Z,751.00
2023-03-22T16:53:13.898Z,758.00
2023-03-22T16:57:13.949Z,762.00
2023-03-22T17:01:13.970Z,760.00
2023-03-22T17:05:13.891Z,762.00
2023-03-22T17:09:14.345Z,766.00
2023-03-22T17:13:13.909Z,767.00
2023-03-22T17:17:14.168Z,769.00
2023-03-22T17:21:14.410Z,777.00
2023-03-22T17:25:14.415Z,774.00
2023-03-22T17:29:14.413Z,773.00
2023-03-22T17:33:14.581Z,772.00
2023-03-22T17:37:14.413Z,771.00
2023-03-22T17:41:14.433Z,770.00
2023-03-22T17:45:14.864Z,773.00
2023-03-22T17:49:14.433Z,774.00
2023-03-22T17:53:29.169Z,770.00
2023-03-22T18:01:15.561Z,775.00
2023-03-22T18:05:15.707Z,770.00
2023-03-22T18:09:14.491Z,778.00
2023-03-22T18:13:14.509Z,782.00
2023-03-22T18:17:14.658Z,777.00
2023-03-22T18:21:14.541Z,776.00
2023-03-22T18:25:14.559Z,777.00
2023-03-22T18:29:14.577Z,770.00
2023-03-22T18:33:14.616Z,767.00
2023-03-22T18:37:14.643Z,766.00
2023-03-22T18:45:16.075Z,769.00
2023-03-22T18:49:14.876Z,766.00
2023-03-22T18:53:18.618Z,764.00
2023-03-22T18:57:18.156Z,767.00
2023-03-22T19:01:15.858Z,773.00
2023-03-22T19:05:14.909Z,774.00
2023-03-22T19:09:14.932Z,767.00
2023-03-22T19:13:14.971Z,776.00
2023-03-22T19:17:15.028Z,776.00
2023-03-22T19:21:26.659Z,774.00
2023-03-22T19:25:16.143Z,776.00
2023-03-22T19:29:15.177Z,773.00
2023-03-22T19:33:30.868Z,776.00
2023-03-22T19:37:16.203Z,774.00
2023-03-22T19:41:42.885Z,774.00
2023-03-22T19:45:16.230Z,769.00
2023-03-22T19:49:15.261Z,772.00
2023-03-22T19:53:51.797Z,771.00
2023-03-22T19:57:16.272Z,773.00
2023-03-22T20:01:15.321Z,774.00
2023-03-22T20:05:18.004Z,768.00
2023-03-22T20:09:15.388Z,770.00
2023-03-22T20:13:15.411Z,768.00
2023-03-22T20:17:25.874Z,765.00
2023-03-22T20:21:16.507Z,769.00
2023-03-22T20:25:15.492Z,773.00
2023-03-22T20:29:15.503Z,769.00
2023-03-22T20:33:15.655Z,772.00
2023-03-22T20:37:15.873Z,767.00
2023-03-22T20:41:16.081Z,763.00
2023-03-22T20:45:16.293Z,764.00
2023-03-22T20:49:16.502Z,770.00
2023-03-22T20:53:16.731Z,763.00
2023-03-22T20:57:16.959Z,765.00
2023-03-22T21:01:17.209Z,760.00
2023-03-22T21:05:18.414Z,764.00
2023-03-22T21:09:17.677Z,760.00
2023-03-22T21:13:17.909Z,758.00
2023-03-22T21:17:18.143Z,754.00
2023-03-22T21:21:18.368Z,757.00
2023-03-22T21:25:18.610Z,758.00
2023-03-22T21:29:18.939Z,758.00
2023-03-22T21:33:19.102Z,756.00
2023-03-22T21:37:19.369Z,760.00
2023-03-22T21:41:19.596Z,759.00
2023-03-22T21:45:19.853Z,760.00
2023-03-22T21:49:20.199Z,760.00
2023-03-22T21:53:20.381Z,759.00
2023-03-22T21:57:20.656Z,765.00
2023-03-22T22:01:20.921Z,767.00
2023-03-22T22:05:21.182Z,767.00
2023-03-22T22:09:21.461Z,766.00
2023-03-22T22:13:21.713Z,762.00
2023-03-22T22:17:21.970Z,764.00
2023-03-22T22:21:22.260Z,761.00
2023-03-22T22:25:22.630Z,758.00
2023-03-22T22:29:22.900Z,761.00
2023-03-22T22:33:23.105Z,759.00
2023-03-22T22:37:23.395Z,761.00
2023-03-22T22:41:23.751Z,762.00
2023-03-22T22:45:23.973Z,760.00
2023-03-22T22:49:24.267Z,759.00
2023-03-22T22:53:24.584Z,759.00
2023-03-22T22:57:24.895Z,754.00
2023-03-22T23:01:25.191Z,752.00
2023-03-22T23:05:25.508Z,755.00
2023-03-22T23:09:25.561Z,756.00
2023-03-22T23:13:25.632Z,751.00
2023-03-22T23:17:25.691Z,755.00
2023-03-22T23:21:25.740Z,752.00
2023-03-22T23:25:25.799Z,754.00
2023-03-22T23:29:25.839Z,753.00
2023-03-22T23:33:25.889Z,750.00
2023-03-22T23:37:25.946Z,752.00
2023-03-22T23:41:25.981Z,762.00
2023-03-22T23:45:26.273Z,756.00
2023-03-22T23:49:26.321Z,755.00
2023-03-22T23:53:26.397Z,752.00
2023-03-22T23:57:26.467Z,751.00
